Altisurface de La Taillade

FR-0290 · Cantal, Auvergne-Rhône-Alpes, Francia

METAR pasados FR-0290 · Altisurface de La Taillade

A continuación puedes ver los METAR de los últimos días. Selecciona un año para ver los METAR más antiguos, desde el año 2007 en adelante.

9 de diciembre de 2022

Hora Código Tiempo Temp. Visibilidad Cielo nuboso Viento METAR/SPECI
02:00
V
5 °C 10 km+ 4.300 ft Var 000° 0 kt METAR LFLW 090100Z AUTO 00000KT 9999 SCT013 BKN043 OVC050 05/03 Q0999
01:30
M
5 °C 10 km+ 1.400 ft 110° 110° 3 kt METAR LFLW 090030Z AUTO 11003KT 9999 OVC014 05/04 Q0999
01:00
M
5 °C 10 km+ 1.600 ft Var Var 2 kt METAR LFLW 090000Z AUTO VRB02KT 9999 BKN016/// BKN022/// OVC037/// ///TCU 05/03 Q0999
00:30
V
6 °C 10 km+ 3.800 ft 100° 100° 3 kt METAR LFLW 082330Z AUTO 10003KT 070V170 9999 SCT017 BKN038 BKN052 06/03 Q1000
00:00
M
5 °C 10 km+ 1.600 ft 110° 110° 3 kt METAR LFLW 082300Z AUTO 11003KT 9999 BKN016 BKN045 OVC052 05/03 Q1000

8 de diciembre de 2022

Hora Código Tiempo Temp. Visibilidad Cielo nuboso Viento METAR/SPECI
23:30
V
5 °C 10 km+ 5.600 ft 100° 100° 3 kt METAR LFLW 082230Z AUTO 10003KT 9999 FEW018 OVC056 05/03 Q1000
23:00
V
5 °C 10 km+ 5.800 ft 110° 110° 3 kt METAR LFLW 082200Z AUTO 11003KT 9999 FEW018 OVC058 05/03 Q1001
22:30
V
6 °C 10 km+ 3.300 ft 090° 090° 5 kt METAR LFLW 082130Z AUTO 09005KT 060V120 9999 SCT018 BKN033 OVC068 06/03 Q1001
22:00
M
5 °C 10 km+ 1.600 ft 090° 090° 5 kt METAR LFLW 082100Z AUTO 09005KT 9999 BKN016 BKN110 OVC180 05/03 Q1001
21:30
M
5 °C 10 km+ 1.600 ft 110° 110° 4 kt METAR LFLW 082030Z AUTO 11004KT 9999 OVC016 05/03 Q1002
21:00
M
5 °C 10 km+ 1.700 ft 120° 120° 4 kt METAR LFLW 082000Z AUTO 12004KT 9999 OVC017 05/03 Q1002
20:30
V
5 °C 10 km+ 11.000 ft 130° 130° 4 kt METAR LFLW 081930Z AUTO 13004KT 9999 SCT019 BKN110 BKN130 05/02 Q1002
20:00
V
6 °C 10 km+ - 100° 100° 5 kt METAR LFLW 081900Z AUTO 10005KT CAVOK 06/02 Q1002
19:30
V
6 °C 10 km+ 8.400 ft 100° 100° 5 kt METAR LFLW 081830Z AUTO 10005KT 9999 SCT018 OVC084 06/02 Q1002
19:00
M
6 °C 10 km+ 1.800 ft 100° 100° 6 kt METAR LFLW 081800Z AUTO 10006KT 9999 BKN018 OVC084 06/01 Q1002
18:30
M
6 °C 10 km+ 1.900 ft 080° 080° 4 kt METAR LFLW 081730Z AUTO 08004KT 050V120 9999 BKN019 OVC086 06/02 Q1003
18:00
V
6 °C 10 km+ - 100° 100° 5 kt METAR LFLW 081700Z AUTO 10005KT CAVOK 06/01 Q1003 NOSIG
17:30
V
7 °C 10 km+ - 100° 100° 6 kt METAR LFLW 081630Z AUTO 10006KT CAVOK 07/01 Q1003 NOSIG
17:00
V
7 °C 10 km+ - 120° 120° 6 kt METAR LFLW 081600Z AUTO 12006KT CAVOK 07/01 Q1003 NOSIG
16:30
V
7 °C 10 km+ - 110° 110° 5 kt METAR LFLW 081530Z AUTO 11005KT CAVOK 07/01 Q1003 NOSIG
16:00
V
7 °C 10 km+ - 100° 100° 4 kt METAR LFLW 081500Z AUTO 10004KT CAVOK 07/00 Q1003 NOSIG
15:30
V
7 °C 10 km+ - 110° 110° 5 kt METAR LFLW 081430Z AUTO 11005KT CAVOK 07/00 Q1003 NOSIG
15:00
V
8 °C 10 km+ - 070° 070° 4 kt METAR LFLW 081400Z AUTO 07004KT CAVOK 08/M00 Q1004 NOSIG
14:30
V
8 °C 10 km+ - 080° 080° 5 kt METAR LFLW 081330Z AUTO 08005KT CAVOK 08/M01 Q1004 NOSIG
14:00
V
7 °C 10 km+ - 090° 090° 4 kt METAR LFLW 081300Z AUTO 09004KT CAVOK 07/M00 Q1004 NOSIG
13:30
V
7 °C 10 km+ - 090° 090° 4 kt METAR LFLW 081230Z AUTO 09004KT 070V130 CAVOK 07/M01 Q1005 NOSIG
13:00
V
6 °C 10 km+ - Var Var 2 kt METAR LFLW 081200Z AUTO VRB02KT CAVOK 06/M01 Q1005 NOSIG
12:30
V
6 °C 10 km+ - Var Var 3 kt METAR LFLW 081130Z AUTO VRB03KT CAVOK 06/M02 Q1005 NOSIG
12:00
V
3 °C 10 km+ - Var Var 3 kt METAR LFLW 081100Z AUTO VRB03KT CAVOK 03/M02 Q1006 NOSIG
11:30
V
3 °C 10 km+ - 080° 080° 9 kt METAR LFLW 081030Z AUTO 08009KT CAVOK 03/M02 Q1006 NOSIG
11:00
V
2 °C 10 km+ - 090° 090° 7 kt METAR LFLW 081000Z AUTO 09007KT CAVOK 02/M02 Q1007 NOSIG
10:30
V
1 °C 10 km+ - 090° 090° 6 kt METAR LFLW 080930Z AUTO 09006KT CAVOK 01/M03 Q1007 NOSIG
10:00
V
1 °C 10 km+ - 090° 090° 7 kt METAR LFLW 080900Z AUTO 09007KT CAVOK 01/M03 Q1007 NOSIG
09:30
V
0 °C 10 km+ - 090° 090° 6 kt METAR LFLW 080830Z AUTO 09006KT CAVOK M00/M03 Q1007 NOSIG
09:00
V
-1 °C 10 km+ - 100° 100° 7 kt METAR LFLW 080800Z AUTO 10007KT CAVOK M01/M04 Q1007 NOSIG
08:30
V
-1 °C 10 km+ - 090° 090° 8 kt METAR LFLW 080730Z AUTO 09008KT CAVOK M01/M04 Q1007 NOSIG
08:00
V
-2 °C 10 km+ - 090° 090° 5 kt METAR LFLW 080700Z AUTO 09005KT CAVOK M02/M05 Q1007 TEMPO 4000 BR
07:30
V
-2 °C 10 km+ - 090° 090° 7 kt METAR LFLW 080630Z AUTO 09007KT CAVOK M02/M05 Q1008 TEMPO 4000 BR
07:00
V
-2 °C 10 km+ - 100° 100° 8 kt METAR LFLW 080600Z AUTO 10008KT CAVOK M02/M05 Q1008 TEMPO 4000 BR
06:30
V
-2 °C 10 km+ 4.500 ft 090° 090° 9 kt METAR LFLW 080530Z AUTO 09009KT 9999 BKN045 BKN094 M02/M05 Q1008
06:00
V
-2 °C 10 km+ 9.600 ft 090° 090° 9 kt METAR LFLW 080500Z AUTO 09009KT 9999 FEW044 OVC096 M02/M05 Q1008
05:30
V
-3 °C 10 km+ - 090° 090° 8 kt METAR LFLW 080430Z AUTO 09008KT CAVOK M03/M05 Q1009
05:00
V
-2 °C 10 km+ - 100° 100° 6 kt METAR LFLW 080400Z AUTO 10006KT CAVOK M02/M05 Q1009
04:30
V
-3 °C 10 km+ - 100° 100° 5 kt METAR LFLW 080330Z AUTO 10005KT CAVOK M03/M06 Q1009
04:00
V
-3 °C 10 km+ - 100° 100° 5 kt METAR LFLW 080300Z AUTO 10005KT CAVOK M03/M06 Q1009
03:30
V
-4 °C 10 km+ - 110° 110° 5 kt METAR LFLW 080230Z AUTO 11005KT CAVOK M04/M06 Q1010
03:00
V
-4 °C 10 km+ - 100° 100° 5 kt METAR LFLW 080200Z AUTO 10005KT CAVOK M04/M06 Q1010
02:30
V
-3 °C 10 km+ - 090° 090° 8 kt METAR LFLW 080130Z AUTO 09008KT CAVOK M03/M06 Q1010
02:00
V
-3 °C 10 km+ - 100° 100° 6 kt METAR LFLW 080100Z AUTO 10006KT CAVOK M03/M05 Q1010
01:30
V
-3 °C 10 km+ - 100° 100° 5 kt METAR LFLW 080030Z AUTO 10005KT CAVOK M03/M05 Q1010
01:00
V
-3 °C 10 km+ - 100° 100° 6 kt METAR LFLW 080000Z AUTO 10006KT CAVOK M03/M05 Q1010
00:30
V
-3 °C 10 km+ - 100° 100° 5 kt METAR LFLW 072330Z AUTO 10005KT CAVOK M03/M05 Q1011
00:00
V
-3 °C 10 km+ - 090° 090° 8 kt METAR LFLW 072300Z AUTO 09008KT CAVOK M03/M05 Q1011

7 de diciembre de 2022

Hora Código Tiempo Temp. Visibilidad Cielo nuboso Viento METAR/SPECI
23:30
V
-3 °C 10 km+ - 100° 100° 5 kt METAR LFLW 072230Z AUTO 10005KT CAVOK M03/M06 Q1011
23:00
V
-2 °C 10 km+ - 100° 100° 5 kt METAR LFLW 072200Z AUTO 10005KT CAVOK M02/M05 Q1011
22:30
V
-2 °C 10 km+ - 100° 100° 7 kt METAR LFLW 072130Z AUTO 10007KT CAVOK M02/M05 Q1011
22:00
V
-2 °C 10 km+ - 100° 100° 5 kt METAR LFLW 072100Z AUTO 10005KT CAVOK M02/M05 Q1012
21:30
V
-3 °C 10 km+ - 120° 120° 6 kt METAR LFLW 072030Z AUTO 12006KT CAVOK M03/M05 Q1012
21:00
V
-3 °C 10 km+ - 120° 120° 5 kt METAR LFLW 072000Z AUTO 12005KT CAVOK M03/M05 Q1012
20:30
V
-2 °C 10 km+ - 100° 100° 6 kt METAR LFLW 071930Z AUTO 10006KT CAVOK M02/M04 Q1012
20:00
V
-1 °C 10 km+ - 110° 110° 7 kt METAR LFLW 071900Z AUTO 11007KT CAVOK M01/M04 Q1012
19:30
V
-2 °C 10 km+ - 120° 120° 6 kt METAR LFLW 071830Z AUTO 12006KT CAVOK M02/M04 Q1012
19:00
V
-2 °C 10 km+ - 120° 120° 6 kt METAR LFLW 071800Z AUTO 12006KT CAVOK M02/M04 Q1012
18:30
V
-1 °C 10 km+ - 120° 120° 7 kt METAR LFLW 071730Z AUTO 12007KT CAVOK M01/M03 Q1012 NOSIG
18:00
V
-1 °C 10 km+ - 120° 120° 7 kt METAR LFLW 071700Z AUTO 12007KT CAVOK M01/M03 Q1012 NOSIG
17:30
V
0 °C 10 km+ - 120° 120° 7 kt METAR LFLW 071630Z AUTO 12007KT CAVOK M00/M03 Q1012 NOSIG
17:00
V
1 °C 10 km+ - 110° 110° 7 kt METAR LFLW 071600Z AUTO 11007KT CAVOK 01/M02 Q1012 NOSIG
16:30
V
3 °C 10 km+ - 110° 110° 6 kt METAR LFLW 071530Z AUTO 11006KT CAVOK 03/M02 Q1012 NOSIG
16:00
V
5 °C 10 km+ - 110° 110° 6 kt METAR LFLW 071500Z AUTO 11006KT CAVOK 05/M00 Q1012 NOSIG
15:30
V
6 °C 10 km+ - 100° 100° 5 kt METAR LFLW 071430Z AUTO 10005KT CAVOK 06/M01 Q1012 NOSIG
15:00
V
7 °C 10 km+ - 110° 110° 5 kt METAR LFLW 071400Z AUTO 11005KT CAVOK 07/M00 Q1012 NOSIG
14:30
V
7 °C 10 km+ - Var Var 3 kt METAR LFLW 071330Z AUTO VRB03KT CAVOK 07/M01 Q1013 NOSIG
14:00
V
8 °C 10 km+ - Var Var 2 kt METAR LFLW 071300Z AUTO VRB02KT CAVOK 08/M01 Q1013 NOSIG
13:30
V
7 °C 10 km+ - Var Var 2 kt METAR LFLW 071230Z AUTO VRB02KT CAVOK 07/M02 Q1013 NOSIG
13:00
V
7 °C 10 km+ - Var Var 2 kt METAR LFLW 071200Z AUTO VRB02KT CAVOK 07/M01 Q1014 NOSIG
12:30
V
7 °C 10 km+ - Var Var 2 kt METAR LFLW 071130Z AUTO VRB02KT CAVOK 07/M01 Q1014 NOSIG
12:00
V
5 °C 10 km+ - Var Var 2 kt METAR LFLW 071100Z AUTO VRB02KT CAVOK 05/M02 Q1014 NOSIG
11:30
V
4 °C 10 km+ - Var Var 3 kt METAR LFLW 071030Z AUTO VRB03KT CAVOK 04/M02 Q1014 NOSIG
11:00
V
3 °C 10 km+ - Var Var 3 kt METAR LFLW 071000Z AUTO VRB03KT CAVOK 03/M03 Q1015 NOSIG
10:30
V
1 °C 10 km+ - Var Var 2 kt METAR LFLW 070930Z AUTO VRB02KT CAVOK 01/M03 Q1015 NOSIG
10:00
V
0 °C 10 km+ - 100° 100° 3 kt METAR LFLW 070900Z AUTO 10003KT 070V130 CAVOK 00/M03 Q1015 NOSIG
09:30
V
-1 °C 10 km+ - 100° 100° 3 kt METAR LFLW 070830Z AUTO 10003KT CAVOK M01/M04 Q1015 NOSIG
09:00
V
-3 °C 10 km+ - 100° 100° 3 kt METAR LFLW 070800Z AUTO 10003KT CAVOK M03/M05 Q1015 NOSIG
08:30
V
-5 °C 10 km+ - 110° 110° 5 kt METAR LFLW 070730Z AUTO 11005KT CAVOK M05/M06 Q1014 NOSIG
08:00
V
-5 °C 10 km+ - 120° 120° 4 kt METAR LFLW 070700Z AUTO 12004KT CAVOK M05/M06 Q1014 NOSIG
07:30
V
-5 °C 10 km+ - 120° 120° 3 kt METAR LFLW 070630Z AUTO 12003KT CAVOK M05/M06 Q1014 NOSIG
07:00
V
-5 °C 10 km+ - 100° 100° 3 kt METAR LFLW 070600Z AUTO 10003KT CAVOK M05/M06 Q1014 NOSIG
06:30
V
-4 °C 10 km+ - Var Var 3 kt METAR LFLW 070530Z AUTO VRB03KT CAVOK M04/M05 Q1014
06:00
V
-5 °C 10 km+ - 110° 110° 2 kt METAR LFLW 070500Z AUTO 11002KT CAVOK M05/M05 Q1015
05:30
V
-4 °C 10 km+ - Var Var 2 kt METAR LFLW 070430Z AUTO VRB02KT CAVOK M04/M05 Q1015
05:00
V
-4 °C 10 km+ - 110° 110° 2 kt METAR LFLW 070400Z AUTO 11002KT CAVOK M04/M05 Q1015
04:30
V
-4 °C 10 km+ - 100° 100° 2 kt METAR LFLW 070330Z AUTO 10002KT CAVOK M04/M04 Q1015
04:00
V
-4 °C 10 km+ - 120° 120° 3 kt METAR LFLW 070300Z AUTO 12003KT CAVOK M04/M05 Q1015
03:30
V
-4 °C 10 km+ - 110° 110° 3 kt METAR LFLW 070230Z AUTO 11003KT CAVOK M04/M04 Q1015
03:00
V
-4 °C 10 km+ - 110° 110° 3 kt METAR LFLW 070200Z AUTO 11003KT CAVOK M04/M05 Q1015
02:30
V
-4 °C 10 km+ - 110° 110° 3 kt METAR LFLW 070130Z AUTO 11003KT CAVOK M04/M05 Q1015
02:00
V
-4 °C 10 km+ - 110° 110° 4 kt METAR LFLW 070100Z AUTO 11004KT CAVOK M04/M05 Q1015
01:30
V
-4 °C 10 km+ - 130° 130° 3 kt METAR LFLW 070030Z AUTO 13003KT CAVOK M04/M04 Q1015
01:00
V
-3 °C 10 km+ - 120° 120° 3 kt METAR LFLW 070000Z AUTO 12003KT CAVOK M03/M04 Q1016
00:30
V
-3 °C 10 km+ - 100° 100° 4 kt METAR LFLW 062330Z AUTO 10004KT CAVOK M03/M04 Q1016
00:00
V
-2 °C 10 km+ - 110° 110° 4 kt METAR LFLW 062300Z AUTO 11004KT CAVOK M02/M03 Q1016

6 de diciembre de 2022

Hora Código Tiempo Temp. Visibilidad Cielo nuboso Viento METAR/SPECI
23:30
V
-3 °C 10 km+ - 110° 110° 3 kt METAR LFLW 062230Z AUTO 11003KT CAVOK M03/M04 Q1016
23:00
V
-2 °C 10 km+ - 110° 110° 4 kt METAR LFLW 062200Z AUTO 11004KT CAVOK M02/M03 Q1016
22:30
V
-3 °C 10 km+ - 120° 120° 3 kt METAR LFLW 062130Z AUTO 12003KT CAVOK M03/M04 Q1016
22:00
V
-2 °C 10 km+ - 110° 110° 3 kt METAR LFLW 062100Z AUTO 11003KT CAVOK M02/M03 Q1016
21:30
V
-2 °C 10 km+ - 110° 110° 4 kt METAR LFLW 062030Z AUTO 11004KT CAVOK M02/M03 Q1015
21:00
V
-1 °C 10 km+ - 120° 120° 4 kt METAR LFLW 062000Z AUTO 12004KT CAVOK M01/M03 Q1016
20:30
V
-1 °C 10 km+ - 100° 100° 3 kt METAR LFLW 061930Z AUTO 10003KT CAVOK M01/M03 Q1016
20:00
V
0 °C 10 km+ - 120° 120° 4 kt METAR LFLW 061900Z AUTO 12004KT CAVOK M00/M03 Q1015
19:30
V
2 °C 10 km+ - 100° 100° 3 kt METAR LFLW 061830Z AUTO 10003KT CAVOK 02/M02 Q1015
19:00
V
1 °C 10 km+ - 130° 130° 4 kt METAR LFLW 061800Z AUTO 13004KT 080V140 CAVOK 01/M03 Q1015
18:30
V
3 °C 10 km+ - 060° 060° 4 kt METAR LFLW 061730Z AUTO 06004KT 020V090 CAVOK 03/M02 Q1015
18:00
V
4 °C 10 km+ - 120° 120° 1 kt METAR LFLW 061700Z AUTO 12001KT CAVOK 04/M03 Q1015 NOSIG
17:30
V
7 °C 10 km+ - 280° 280° 2 kt METAR LFLW 061630Z AUTO 28002KT CAVOK 07/M02 Q1015 NOSIG
17:00
V
8 °C 10 km+ - Var 000° 0 kt METAR LFLW 061600Z AUTO 00000KT CAVOK 08/M02 Q1015 NOSIG
16:30
V
9 °C 10 km+ - 300° 300° 4 kt METAR LFLW 061530Z AUTO 30004KT 260V340 CAVOK 09/M03 Q1015 NOSIG
16:00
V
10 °C 10 km+ - 300° 300° 3 kt METAR LFLW 061500Z AUTO 30003KT 270V340 CAVOK 10/M05 Q1015 NOSIG
15:30
V
10 °C 10 km+ - 310° 310° 5 kt METAR LFLW 061430Z AUTO 31005KT CAVOK 10/M06 Q1014 NOSIG
15:00
V
11 °C 10 km+ - 260° 260° 4 kt METAR LFLW 061400Z AUTO 26004KT 210V310 CAVOK 11/M05 Q1014 NOSIG
14:30
V
11 °C 10 km+ - 250° 250° 4 kt METAR LFLW 061330Z AUTO 25004KT 220V300 CAVOK 11/M04 Q1015 NOSIG
14:00
V
11 °C 10 km+ - Var Var 2 kt METAR LFLW 061300Z AUTO VRB02KT CAVOK 11/M03 Q1015 NOSIG
13:30
V
11 °C 10 km+ - Var Var 2 kt METAR LFLW 061230Z AUTO VRB02KT CAVOK 11/M05 Q1015 NOSIG
13:00
V
11 °C 10 km+ - Var Var 1 kt METAR LFLW 061200Z AUTO VRB01KT CAVOK 11/M02 Q1015 NOSIG
12:30
V
9 °C 10 km+ - Var Var 1 kt METAR LFLW 061130Z AUTO VRB01KT CAVOK 09/M01 Q1015 NOSIG
12:00
V
6 °C 10 km+ - Var Var 3 kt METAR LFLW 061100Z AUTO VRB03KT CAVOK 06/M02 Q1016 NOSIG
11:30
V
7 °C 10 km+ - Var Var 1 kt METAR LFLW 061030Z AUTO VRB01KT CAVOK 07/M03 Q1016 NOSIG
11:00
V
5 °C 10 km+ - Var 000° 0 kt METAR LFLW 061000Z AUTO 00000KT CAVOK 05/M04 Q1016 NOSIG

Nosotros y terceros seguimos tu comportamiento en Internet en nuestro sitio web con cookies. Si continúas, asumimos que estás de acuerdo con nuestra Política de cookies.